Private Wetterstation Wechselburg
Wetterdaten: Woche 26.09.11 - 02.10.11 (KW39)
Datum Zeit Temp. +2m Bodentemp. Temp.+5cm Temp. Wind Windchill X Diff Temp. Feuchte +2m Feuchte +5cm Sonnenschein Luftdruck Regen Wind Richtung Sonnenschein UV Taupunkt Windchill Windben
26.09.2011 00:00 10,5 C 19,1 C 21,7 C 10,3 C 9,8 C 0,0 C 91 % 61 % 0 % 1021,4 hPa 0,0 l/m 0,0 km/h (0 Bft) N 0,00 h 0,0 UV-I 9,0 C 9,8 C 0,0 km/h (0 Bft)
26.09.2011 01:00 9,8 C 19,0 C 21,7 C 9,7 C 9,4 C 0,0 C 91 % 61 % 0 % 1021,6 hPa 0,0 l/m 0,0 km/h (0 Bft) N 0,00 h 0,0 UV-I 8,4 C 9,4 C 0,0 km/h (0 Bft)
26.09.2011 02:00 9,1 C 18,8 C 21,7 C 9,0 C 8,7 C 0,0 C 91 % 61 % 0 % 1021,9 hPa 0,0 l/m 0,0 km/h (0 Bft) N 0,00 h 0,0 UV-I 7,8 C 8,7 C 0,0 km/h (0 Bft)
26.09.2011 03:00 8,6 C 18,7 C 21,7 C 8,5 C 8,4 C 0,0 C 92 % 61 % 0 % 1022,0 hPa 0,0 l/m 0,0 km/h (0 Bft) N 0,00 h 0,0 UV-I 7,4 C 8,4 C 0,0 km/h (0 Bft)
26.09.2011 04:00 8,4 C 18,6 C 21,7 C 8,3 C 8,3 C 0,0 C 92 % 61 % 0 % 1022,2 hPa 0,0 l/m 0,0 km/h (0 Bft) N 0,00 h 0,0 UV-I 7,1 C 8,3 C 0,3 km/h (0 Bft)
26.09.2011 05:00 8,1 C 18,5 C 21,7 C 8,0 C 7,9 C 0,0 C 92 % 61 % 0 % 1022,5 hPa 0,0 l/m 0,0 km/h (0 Bft) N 0,00 h 0,0 UV-I 6,9 C 7,9 C 0,0 km/h (0 Bft)
26.09.2011 06:00 7,7 C 18,3 C 16,1 C 7,7 C 7,6 C 0,0 C 92 % 74 % 0 % 1023,0 hPa 0,0 l/m 0,0 km/h (0 Bft) N 0,00 h 0,0 UV-I 6,5 C 7,6 C 0,0 km/h (0 Bft)
26.09.2011 07:00 7,6 C 18,2 C 9,2 C 8,6 C 8,6 C 0,9 C 93 % 90 % 25 % 1023,4 hPa 0,0 l/m 0,0 km/h (0 Bft) N 0,42 h 0,0 UV-I 6,6 C 8,6 C 0,0 km/h (0 Bft)
26.09.2011 08:00 8,7 C 18,1 C 9,8 C 10,3 C 10,3 C 1,6 C 94 % 91 % 41 % 1023,7 hPa 0,0 l/m 0,2 km/h (0 Bft) N 0,25 h 0,0 UV-I 7,8 C 10,3 C 0,5 km/h (0 Bft)
26.09.2011 09:00 10,8 C 18,1 C 11,6 C 13,6 C 13,6 C 2,7 C 94 % 93 % 72 % 1024,0 hPa 0,0 l/m 0,8 km/h (0 Bft) W-SW 0,25 h 0,0 UV-I 9,9 C 13,6 C 0,9 km/h (0 Bft)
26.09.2011 10:00 14,2 C 17,8 C 14,0 C 17,6 C 17,6 C 3,4 C 95 % 94 % 87 % 1024,2 hPa 0,0 l/m 0,3 km/h (0 Bft) S-SW 0,50 h 0,0 UV-I 13,4 C 17,6 C 0,4 km/h (0 Bft)
26.09.2011 11:00 16,8 C 17,7 C 16,3 C 19,9 C 19,9 C 3,1 C 94 % 92 % 83 % 1024,2 hPa 0,0 l/m 1,1 km/h (1 Bft) SW 0,33 h 0,0 UV-I 15,8 C 19,9 C 2,4 km/h (1 Bft)
26.09.2011 12:00 21,2 C 17,7 C 18,4 C 24,1 C 24,1 C 2,9 C 76 % 84 % 68 % 1023,9 hPa 0,0 l/m 1,6 km/h (1 Bft) S-SW 0,42 h 2,0 UV-I 16,8 C 24,1 C 3,6 km/h (1 Bft)
26.09.2011 13:00 23,6 C 17,7 C 20,0 C 28,3 C 28,3 C 4,7 C 63 % 76 % 100 % 1023,9 hPa 0,0 l/m 2,8 km/h (1 Bft) SW 1,00 h 0,6 UV-I 16,0 C 28,3 C 4,0 km/h (1 Bft)
26.09.2011 14:00 24,5 C 17,7 C 23,4 C 29,2 C 29,2 C 4,6 C 58 % 63 % 100 % 1023,9 hPa 0,0 l/m 2,7 km/h (1 Bft) SW 1,00 h 0,0 UV-I 15,6 C 29,2 C 4,3 km/h (1 Bft)
26.09.2011 15:00 26,2 C 17,7 C 28,2 C 30,3 C 30,3 C 4,0 C 51 % 49 % 93 % 1023,7 hPa 0,0 l/m 1,6 km/h (1 Bft) S 0,75 h 0,0 UV-I 15,2 C 30,3 C 1,9 km/h (1 Bft)
26.09.2011 16:00 27,3 C 18,0 C 27,7 C 29,7 C 29,7 C 2,4 C 46 % 47 % 62 % 1023,5 hPa 0,0 l/m 1,8 km/h (1 Bft) W-SW 0,00 h 0,0 UV-I 14,7 C 29,7 C 3,2 km/h (1 Bft)
26.09.2011 17:00 25,1 C 18,7 C 24,6 C 28,4 C 28,4 C 3,3 C 51 % 55 % 88 % 1023,3 hPa 0,0 l/m 0,5 km/h (0 Bft) N 0,92 h 0,0 UV-I 14,2 C 28,4 C 0,3 km/h (0 Bft)
26.09.2011 18:00 21,8 C 18,7 C 20,6 C 23,0 C 22,9 C 1,3 C 65 % 71 % 33 % 1023,4 hPa 0,0 l/m 0,0 km/h (0 Bft) N 0,58 h 0,0 UV-I 14,9 C 22,9 C 0,0 km/h (0 Bft)
26.09.2011 19:00 18,0 C 18,7 C 18,4 C 17,5 C 16,5 C 0,0 C 79 % 80 % 0 % 1023,5 hPa 0,0 l/m 0,0 km/h (0 Bft) N 0,00 h 0,0 UV-I 14,2 C 16,5 C 0,0 km/h (0 Bft)
26.09.2011 20:00 15,7 C 18,7 C 18,3 C 15,4 C 14,6 C 0,0 C 85 % 80 % 0 % 1024,1 hPa 0,0 l/m 0,0 km/h (0 Bft) N 0,00 h 0,0 UV-I 13,2 C 14,6 C 0,0 km/h (0 Bft)
26.09.2011 21:00 14,3 C 18,7 C 18,3 C 14,0 C 13,5 C 0,0 C 88 % 80 % 0 % 1024,3 hPa 0,0 l/m 0,0 km/h (0 Bft) N 0,00 h 0,0 UV-I 12,4 C 13,5 C 0,0 km/h (0 Bft)
26.09.2011 22:00 13,5 C 18,7 C 18,3 C 13,3 C 13,0 C 0,0 C 90 % 80 % 0 % 1024,5 hPa 0,0 l/m 0,0 km/h (0 Bft) N 0,00 h 0,0 UV-I 11,8 C 13,0 C 0,0 km/h (0 Bft)
26.09.2011 23:00 12,7 C 19,1 C 18,3 C 12,5 C 12,1 C 0,0 C 90 % 80 % 0 % 1024,7 hPa 0,0 l/m 0,0 km/h (0 Bft) N 0,00 h 0,0 UV-I 11,1 C 12,1 C 0,0 km/h (0 Bft)
27.09.2011 00:00 12,1 C 19,6 C 18,3 C 11,9 C 11,7 C 0,0 C 91 % 80 % 0 % 1024,9 hPa 0,0 l/m 0,0 km/h (0 Bft) N 0,00 h 0,0 UV-I 10,6 C 11,7 C 0,0 km/h (0 Bft)
27.09.2011 01:00 11,6 C 19,6 C 18,3 C 11,5 C 11,3 C 0,0 C 91 % 80 % 0 % 1024,9 hPa 0,0 l/m 0,0 km/h (0 Bft) N 0,00 h 0,0 UV-I 10,2 C 11,3 C 0,0 km/h (0 Bft)
27.09.2011 02:00 11,1 C 19,6 C 18,3 C 11,0 C 10,9 C 0,0 C 92 % 80 % 0 % 1025,1 hPa 0,0 l/m 0,0 km/h (0 Bft) N 0,00 h 0,0 UV-I 9,8 C 10,9 C 0,0 km/h (0 Bft)
27.09.2011 03:00 10,7 C 19,6 C 18,3 C 10,7 C 10,6 C 0,0 C 92 % 80 % 0 % 1025,4 hPa 0,0 l/m 0,0 km/h (0 Bft) N 0,00 h 0,0 UV-I 9,3 C 10,6 C 0,0 km/h (0 Bft)
27.09.2011 04:00 10,6 C 19,6 C 18,3 C 10,6 C 10,6 C 0,0 C 92 % 80 % 0 % 1025,3 hPa 0,0 l/m 0,0 km/h (0 Bft) N 0,00 h 0,0 UV-I 9,4 C 10,6 C 0,0 km/h (0 Bft)
27.09.2011 05:00 10,4 C 19,3 C 12,8 C 10,4 C 10,3 C 0,0 C 92 % 89 % 0 % 1025,6 hPa 0,0 l/m 0,0 km/h (0 Bft) N 0,00 h 0,0 UV-I 9,2 C 10,3 C 0,0 km/h (0 Bft)
27.09.2011 06:00 10,2 C 19,1 C 11,3 C 10,2 C 10,1 C 0,0 C 93 % 91 % 0 % 1026,0 hPa 0,0 l/m 0,0 km/h (0 Bft) N 0,00 h 0,0 UV-I 9,1 C 10,1 C 0,0 km/h (0 Bft)
27.09.2011 07:00 10,2 C 19,0 C 11,2 C 10,7 C 10,7 C 0,6 C 93 % 91 % 15 % 1026,2 hPa 0,0 l/m 0,0 km/h (0 Bft) N 0,33 h 0,0 UV-I 9,1 C 10,7 C 0,0 km/h (0 Bft)
27.09.2011 08:00 11,2 C 19,0 C 11,9 C 12,5 C 12,5 C 1,3 C 94 % 92 % 34 % 1027,0 hPa 0,0 l/m 0,0 km/h (0 Bft) N 0,08 h 0,0 UV-I 10,2 C 12,5 C 0,0 km/h (0 Bft)
27.09.2011 09:00 13,1 C 19,0 C 13,4 C 15,1 C 15,1 C 2,0 C 94 % 93 % 54 % 1027,4 hPa 0,0 l/m 0,0 km/h (0 Bft) N 0,00 h 0,0 UV-I 12,1 C 15,1 C 0,0 km/h (0 Bft)
27.09.2011 10:00 15,4 C 19,0 C 15,5 C 18,8 C 18,8 C 3,5 C 95 % 92 % 87 % 1027,4 hPa 0,0 l/m 0,2 km/h (0 Bft) N 0,58 h 0,2 UV-I 14,6 C 18,8 C 0,5 km/h (0 Bft)
27.09.2011 11:00 17,5 C 19,0 C 16,6 C 19,8 C 19,8 C 2,3 C 92 % 91 % 59 % 1027,9 hPa 0,0 l/m 0,7 km/h (0 Bft) S 0,00 h 0,0 UV-I 16,2 C 19,8 C 1,2 km/h (1 Bft)
27.09.2011 12:00 20,1 C 19,0 C 18,4 C 23,0 C 23,0 C 2,9 C 81 % 86 % 76 % 1028,0 hPa 0,0 l/m 0,6 km/h (0 Bft) N-NO 0,08 h 0,7 UV-I 16,8 C 23,0 C 1,2 km/h (1 Bft)
27.09.2011 13:00 21,0 C 19,0 C 19,7 C 24,5 C 24,5 C 3,5 C 75 % 81 % 85 % 1028,4 hPa 0,0 l/m 2,1 km/h (1 Bft) N-NO 0,67 h 0,0 UV-I 16,4 C 24,5 C 4,1 km/h (1 Bft)
27.09.2011 14:00 21,1 C 19,0 C 20,9 C 25,0 C 25,0 C 3,9 C 72 % 76 % 93 % 1028,5 hPa 0,0 l/m 2,2 km/h (1 Bft) N-NW 0,83 h 0,0 UV-I 15,9 C 25,0 C 3,6 km/h (1 Bft)
27.09.2011 15:00 21,5 C 19,0 C 21,8 C 24,9 C 24,9 C 3,4 C 72 % 72 % 75 % 1028,7 hPa 0,0 l/m 1,2 km/h (1 Bft) N-NO 0,42 h 0,0 UV-I 16,1 C 24,9 C 1,7 km/h (1 Bft)
27.09.2011 16:00 21,0 C 19,0 C 20,2 C 22,2 C 22,2 C 1,2 C 74 % 79 % 31 % 1028,1 hPa 0,0 l/m 0,5 km/h (0 Bft) N 0,00 h 0,0 UV-I 16,3 C 22,2 C 0,7 km/h (0 Bft)
27.09.2011 17:00 20,3 C 19,0 C 19,5 C 20,7 C 20,7 C 0,4 C 78 % 82 % 11 % 1028,1 hPa 0,0 l/m 1,0 km/h (0 Bft) N-NO 0,00 h 0,0 UV-I 16,3 C 20,7 C 2,1 km/h (1 Bft)
27.09.2011 18:00 18,7 C 19,0 C 18,4 C 18,7 C 18,5 C 0,1 C 81 % 84 % 1 % 1028,0 hPa 0,0 l/m 0,2 km/h (0 Bft) N 0,00 h 0,0 UV-I 15,4 C 18,5 C 0,0 km/h (0 Bft)
27.09.2011 19:00 17,5 C 19,0 C 17,4 C 17,3 C 17,0 C 0,0 C 85 % 88 % 0 % 1028,5 hPa 0,0 l/m 0,0 km/h (0 Bft) N 0,00 h 0,0 UV-I 15,0 C 17,0 C 0,0 km/h (0 Bft)
27.09.2011 20:00 16,8 C 19,0 C 16,7 C 16,6 C 16,2 C 0,0 C 88 % 89 % 0 % 1028,9 hPa 0,0 l/m 0,0 km/h (0 Bft) N 0,00 h 0,0 UV-I 14,7 C 16,2 C 0,0 km/h (0 Bft)
27.09.2011 21:00 15,5 C 19,0 C 15,7 C 15,3 C 14,9 C 0,0 C 89 % 90 % 0 % 1029,3 hPa 0,0 l/m 0,0 km/h (0 Bft) N 0,00 h 0,0 UV-I 13,7 C 14,9 C 0,0 km/h (0 Bft)
27.09.2011 22:00 14,5 C 19,0 C 14,9 C 14,3 C 14,0 C 0,0 C 90 % 91 % 0 % 1029,4 hPa 0,0 l/m 0,0 km/h (0 Bft) N 0,00 h 0,0 UV-I 13,0 C 14,0 C 0,0 km/h (0 Bft)
27.09.2011 23:00 13,9 C 19,0 C 14,4 C 13,9 C 13,7 C 0,0 C 92 % 92 % 0 % 1029,5 hPa 0,0 l/m 0,0 km/h (0 Bft) N 0,00 h 0,0 UV-I 12,6 C 13,7 C 0,0 km/h (0 Bft)
28.09.2011 00:00 13,7 C 19,0 C 14,2 C 13,7 C 13,6 C 0,0 C 92 % 92 % 0 % 1029,5 hPa 0,0 l/m 0,0 km/h (0 Bft) N 0,00 h 0,0 UV-I 12,5 C 13,6 C 0,0 km/h (0 Bft)
28.09.2011 01:00 13,4 C 19,0 C 13,9 C 13,4 C 13,3 C 0,0 C 92 % 93 % 0 % 1029,3 hPa 0,0 l/m 0,0 km/h (0 Bft) N 0,00 h 0,0 UV-I 12,2 C 13,3 C 0,0 km/h (0 Bft)
28.09.2011 02:00 13,2 C 19,0 C 13,7 C 13,3 C 13,3 C 0,0 C 93 % 93 % 0 % 1029,4 hPa 0,0 l/m 0,0 km/h (0 Bft) N 0,00 h 0,0 UV-I 12,1 C 13,3 C 0,0 km/h (0 Bft)
28.09.2011 03:00 13,1 C 19,0 C 13,4 C 13,1 C 13,1 C 0,0 C 93 % 93 % 0 % 1029,3 hPa 0,0 l/m 0,0 km/h (0 Bft) N 0,00 h 0,0 UV-I 12,0 C 13,1 C 0,0 km/h (0 Bft)
28.09.2011 04:00 12,8 C 19,0 C 13,2 C 12,8 C 12,8 C 0,0 C 93 % 93 % 0 % 1029,2 hPa 0,0 l/m 0,0 km/h (0 Bft) N 0,00 h 0,0 UV-I 11,7 C 12,8 C 0,0 km/h (0 Bft)
28.09.2011 05:00 12,7 C 19,7 C 13,1 C 12,7 C 12,7 C 0,1 C 93 % 93 % 0 % 1029,2 hPa 0,0 l/m 0,0 km/h (0 Bft) N 0,00 h 0,0 UV-I 11,6 C 12,7 C 0,1 km/h (0 Bft)
28.09.2011 06:00 12,8 C 19,7 C 13,2 C 13,1 C 13,1 C 0,3 C 93 % 94 % 0 % 1029,3 hPa 0,0 l/m 0,0 km/h (0 Bft) N 0,00 h 0,0 UV-I 11,7 C 13,1 C 0,0 km/h (0 Bft)
28.09.2011 07:00 13,2 C 19,7 C 13,6 C 13,6 C 13,6 C 0,3 C 94 % 94 % 8 % 1029,8 hPa 0,0 l/m 0,1 km/h (0 Bft) NO 0,15 h 0,0 UV-I 12,3 C 13,6 C 0,5 km/h (0 Bft)
28.09.2011 08:00 13,8 C 19,7 C 14,0 C 14,4 C 14,4 C 0,7 C 94 % 94 % 17 % 1030,3 hPa 0,0 l/m 0,7 km/h (0 Bft) O-NO 0,00 h 0,0 UV-I 12,8 C 14,4 C 1,2 km/h (1 Bft)
28.09.2011 09:00 13,7 C 19,7 C 14,0 C 14,9 C 14,9 C 1,2 C 94 % 94 % 32 % 1030,4 hPa 0,0 l/m 0,7 km/h (0 Bft) O-NO 0,00 h 0,0 UV-I 12,8 C 14,9 C 1,2 km/h (1 Bft)
28.09.2011 10:00 14,5 C 19,7 C 14,8 C 17,1 C 17,1 C 2,6 C 94 % 94 % 67 % 1030,3 hPa 0,0 l/m 0,5 km/h (0 Bft) O-NO 0,00 h 0,3 UV-I 13,6 C 17,1 C 0,5 km/h (0 Bft)
28.09.2011 11:00 16,0 C 19,7 C 15,7 C 17,9 C 17,9 C 1,9 C 92 % 93 % 50 % 1030,3 hPa 0,0 l/m 1,0 km/h (0 Bft) N-NO 0,00 h 0,2 UV-I 14,8 C 17,9 C 1,2 km/h (1 Bft)
28.09.2011 12:00 18,0 C 19,7 C 16,9 C 21,2 C 21,2 C 3,3 C 84 % 89 % 71 % 1029,9 hPa 0,0 l/m 1,2 km/h (1 Bft) N-NW 0,42 h 0,2 UV-I 15,3 C 21,2 C 2,7 km/h (1 Bft)
28.09.2011 13:00 19,6 C 19,7 C 18,0 C 25,4 C 25,4 C 5,8 C 75 % 81 % 100 % 1030,0 hPa 0,0 l/m 1,7 km/h (1 Bft) N 1,00 h 0,0 UV-I 15,0 C 25,4 C 3,1 km/h (1 Bft)
28.09.2011 14:00 20,0 C 19,7 C 19,7 C 26,0 C 26,0 C 6,0 C 73 % 77 % 100 % 1029,6 hPa 0,0 l/m 1,8 km/h (1 Bft) N-NO 1,00 h 0,0 UV-I 15,1 C 26,0 C 2,3 km/h (1 Bft)
28.09.2011 15:00 20,8 C 19,7 C 24,1 C 26,1 C 26,1 C 5,4 C 71 % 63 % 100 % 1029,2 hPa 0,0 l/m 1,9 km/h (1 Bft) O-NO 1,00 h 0,0 UV-I 15,3 C 26,1 C 3,0 km/h (1 Bft)
28.09.2011 16:00 20,0 C 19,7 C 22,9 C 24,6 C 24,6 C 4,7 C 71 % 63 % 100 % 1028,7 hPa 0,0 l/m 2,4 km/h (1 Bft) O 1,00 h 0,0 UV-I 14,6 C 24,6 C 3,3 km/h (1 Bft)
28.09.2011 17:00 19,0 C 19,7 C 19,7 C 21,9 C 21,9 C 2,9 C 75 % 74 % 76 % 1028,3 hPa 0,0 l/m 2,7 km/h (1 Bft) O 1,00 h 0,0 UV-I 14,6 C 21,9 C 3,2 km/h (1 Bft)
28.09.2011 18:00 17,9 C 19,7 C 18,0 C 19,8 C 19,8 C 1,9 C 78 % 78 % 46 % 1028,1 hPa 0,0 l/m 0,1 km/h (0 Bft) N 0,75 h 0,0 UV-I 14,1 C 19,8 C 0,1 km/h (0 Bft)
28.09.2011 19:00 15,9 C 19,7 C 15,8 C 15,5 C 14,8 C 0,0 C 83 % 84 % 0 % 1028,2 hPa 0,0 l/m 0,0 km/h (0 Bft) N 0,00 h 0,0 UV-I 13,0 C 14,8 C 0,0 km/h (0 Bft)
28.09.2011 20:00 14,4 C 19,7 C 14,5 C 14,1 C 13,4 C 0,0 C 87 % 88 % 0 % 1028,8 hPa 0,0 l/m 0,0 km/h (0 Bft) N 0,00 h 0,0 UV-I 12,3 C 13,4 C 0,0 km/h (0 Bft)
28.09.2011 21:00 13,2 C 19,7 C 13,5 C 12,9 C 12,2 C 0,0 C 89 % 89 % 0 % 1028,7 hPa 0,0 l/m 0,0 km/h (0 Bft) N 0,00 h 0,0 UV-I 11,4 C 12,2 C 0,0 km/h (0 Bft)
28.09.2011 22:00 12,0 C 19,7 C 12,7 C 11,8 C 11,2 C 0,0 C 90 % 90 % 0 % 1028,8 hPa 0,0 l/m 0,0 km/h (0 Bft) N 0,00 h 0,0 UV-I 10,4 C 11,2 C 0,0 km/h (0 Bft)
28.09.2011 23:00 11,1 C 19,7 C 12,0 C 10,9 C 10,5 C 0,0 C 91 % 90 % 0 % 1028,5 hPa 0,0 l/m 0,0 km/h (0 Bft) N 0,00 h 0,0 UV-I 9,7 C 10,5 C 0,0 km/h (0 Bft)
29.09.2011 00:00 10,4 C 19,7 C 11,4 C 10,2 C 9,8 C 0,0 C 91 % 91 % 0 % 1028,4 hPa 0,0 l/m 0,0 km/h (0 Bft) N 0,00 h 0,0 UV-I 9,0 C 9,8 C 0,0 km/h (0 Bft)
29.09.2011 01:00 9,7 C 19,7 C 10,9 C 9,6 C 9,3 C 0,0 C 91 % 91 % 0 % 1028,3 hPa 0,0 l/m 0,0 km/h (0 Bft) N 0,00 h 0,0 UV-I 8,4 C 9,3 C 0,0 km/h (0 Bft)
29.09.2011 02:00 9,3 C 19,7 C 10,5 C 9,2 C 9,0 C 0,0 C 92 % 91 % 0 % 1028,6 hPa 0,0 l/m 0,0 km/h (0 Bft) N 0,00 h 0,0 UV-I 8,0 C 9,0 C 0,0 km/h (0 Bft)
29.09.2011 03:00 9,0 C 19,7 C 10,4 C 8,9 C 8,7 C 0,0 C 92 % 91 % 0 % 1028,5 hPa 0,0 l/m 0,0 km/h (0 Bft) N 0,00 h 0,0 UV-I 7,7 C 8,7 C 0,0 km/h (0 Bft)
29.09.2011 04:00 8,9 C 19,7 C 10,4 C 8,8 C 8,7 C 0,0 C 92 % 91 % 0 % 1028,9 hPa 0,0 l/m 0,0 km/h (0 Bft) N 0,00 h 0,0 UV-I 7,7 C 8,7 C 0,0 km/h (0 Bft)
29.09.2011 05:00 8,8 C 19,7 C 10,0 C 8,8 C 8,6 C 0,0 C 93 % 92 % 0 % 1028,9 hPa 0,0 l/m 0,0 km/h (0 Bft) N 0,00 h 0,0 UV-I 7,8 C 8,6 C 0,0 km/h (0 Bft)
29.09.2011 06:00 8,4 C 19,7 C 9,7 C 8,3 C 8,1 C 0,0 C 93 % 92 % 0 % 1028,6 hPa 0,0 l/m 0,0 km/h (0 Bft) N 0,00 h 0,0 UV-I 7,4 C 8,1 C 0,0 km/h (0 Bft)
29.09.2011 07:00 8,2 C 19,7 C 9,5 C 8,3 C 8,2 C 0,2 C 93 % 92 % 5 % 1028,7 hPa 0,0 l/m 0,0 km/h (0 Bft) N 0,00 h 0,0 UV-I 7,1 C 8,2 C 0,0 km/h (0 Bft)
29.09.2011 08:00 8,8 C 19,7 C 10,0 C 9,8 C 9,8 C 1,0 C 94 % 92 % 26 % 1029,0 hPa 0,0 l/m 0,0 km/h (0 Bft) N 0,00 h 0,0 UV-I 7,9 C 9,8 C 0,0 km/h (0 Bft)
29.09.2011 09:00 10,6 C 19,7 C 11,4 C 12,1 C 12,1 C 1,5 C 94 % 92 % 40 % 1029,1 hPa 0,0 l/m 0,0 km/h (0 Bft) N 0,00 h 0,0 UV-I 9,6 C 12,1 C 0,0 km/h (0 Bft)
29.09.2011 10:00 12,6 C 19,7 C 13,3 C 15,0 C 15,0 C 2,4 C 95 % 93 % 64 % 1029,6 hPa 0,0 l/m 0,3 km/h (0 Bft) W-SW 0,00 h 0,0 UV-I 11,8 C 15,0 C 0,5 km/h (0 Bft)
29.09.2011 11:00 15,2 C 19,7 C 15,5 C 18,0 C 18,0 C 2,8 C 94 % 89 % 74 % 1029,3 hPa 0,0 l/m 0,7 km/h (0 Bft) N-NO 0,00 h 0,0 UV-I 14,2 C 18,0 C 1,8 km/h (1 Bft)
29.09.2011 12:00 18,9 C 19,7 C 17,6 C 22,1 C 22,1 C 3,2 C 80 % 82 % 76 % 1029,4 hPa 0,0 l/m 1,1 km/h (1 Bft) N-NO 0,42 h 0,7 UV-I 15,2 C 22,1 C 1,9 km/h (1 Bft)
29.09.2011 13:00 20,7 C 19,7 C 18,8 C 26,1 C 26,1 C 5,5 C 70 % 78 % 100 % 1029,0 hPa 0,0 l/m 1,1 km/h (1 Bft) N-NO 1,00 h 0,0 UV-I 15,1 C 26,1 C 2,3 km/h (1 Bft)
29.09.2011 14:00 21,7 C 19,7 C 20,8 C 28,3 C 28,3 C 6,6 C 61 % 65 % 100 % 1028,6 hPa 0,0 l/m 1,6 km/h (1 Bft) N-NO 1,00 h 0,0 UV-I 13,7 C 28,3 C 2,8 km/h (1 Bft)
29.09.2011 15:00 22,8 C 19,7 C 25,9 C 28,7 C 28,7 C 5,9 C 55 % 51 % 100 % 1028,1 hPa 0,0 l/m 1,2 km/h (1 Bft) O-NO 1,00 h 0,0 UV-I 13,3 C 28,7 C 1,9 km/h (1 Bft)
29.09.2011 16:00 23,0 C 19,7 C 25,7 C 28,5 C 28,5 C 5,5 C 54 % 48 % 100 % 1027,7 hPa 0,0 l/m 0,6 km/h (0 Bft) N-NO 1,00 h 0,0 UV-I 13,0 C 28,5 C 1,3 km/h (1 Bft)
29.09.2011 17:00 22,0 C 19,7 C 22,4 C 25,8 C 25,8 C 3,8 C 56 % 55 % 94 % 1028,0 hPa 0,0 l/m 1,8 km/h (1 Bft) O 1,00 h 0,0 UV-I 12,8 C 25,8 C 2,2 km/h (1 Bft)
29.09.2011 18:00 20,3 C 19,7 C 20,0 C 22,1 C 22,1 C 1,8 C 65 % 66 % 46 % 1028,3 hPa 0,0 l/m 0,5 km/h (0 Bft) O-NO 0,75 h 0,0 UV-I 13,5 C 22,1 C 0,9 km/h (0 Bft)
29.09.2011 19:00 17,1 C 19,7 C 17,3 C 16,7 C 15,8 C 0,0 C 74 % 75 % 0 % 1027,9 hPa 0,0 l/m 0,1 km/h (0 Bft) N 0,00 h 0,0 UV-I 12,4 C 15,8 C 0,0 km/h (0 Bft)
29.09.2011 20:00 14,7 C 19,7 C 16,1 C 14,3 C 13,5 C 0,0 C 81 % 80 % 0 % 1028,3 hPa 0,0 l/m 0,0 km/h (0 Bft) N 0,00 h 0,0 UV-I 11,6 C 13,5 C 0,0 km/h (0 Bft)
29.09.2011 21:00 13,0 C 19,7 C 16,1 C 12,7 C 12,0 C 0,0 C 86 % 80 % 0 % 1028,4 hPa 0,0 l/m 0,0 km/h (0 Bft) N 0,00 h 0,0 UV-I 10,7 C 12,0 C 0,0 km/h (0 Bft)
29.09.2011 22:00 12,0 C 19,7 C 16,1 C 11,7 C 11,2 C 0,0 C 88 % 80 % 0 % 1028,3 hPa 0,0 l/m 0,0 km/h (0 Bft) N 0,00 h 0,0 UV-I 10,1 C 11,2 C 0,0 km/h (0 Bft)
29.09.2011 23:00 11,3 C 19,7 C 16,1 C 11,1 C 10,6 C 0,0 C 89 % 80 % 0 % 1028,1 hPa 0,0 l/m 0,0 km/h (0 Bft) N 0,00 h 0,0 UV-I 9,6 C 10,6 C 0,0 km/h (0 Bft)
30.09.2011 00:00 10,6 C 19,7 C 16,1 C 10,4 C 10,0 C 0,0 C 90 % 80 % 0 % 1028,3 hPa 0,0 l/m 0,0 km/h (0 Bft) N 0,00 h 0,0 UV-I 9,1 C 10,0 C 0,0 km/h (0 Bft)
30.09.2011 01:00 10,0 C 19,7 C 16,1 C 9,8 C 9,4 C 0,0 C 91 % 80 % 0 % 1028,0 hPa 0,0 l/m 0,0 km/h (0 Bft) N 0,00 h 0,0 UV-I 8,6 C 9,4 C 0,0 km/h (0 Bft)
30.09.2011 02:00 9,4 C 19,7 C 16,1 C 9,2 C 8,9 C 0,0 C 91 % 80 % 0 % 1028,3 hPa 0,0 l/m 0,0 km/h (0 Bft) N 0,00 h 0,0 UV-I 8,0 C 8,9 C 0,0 km/h (0 Bft)
30.09.2011 03:00 9,0 C 19,7 C 16,1 C 8,8 C 8,6 C 0,0 C 92 % 80 % 0 % 1028,2 hPa 0,0 l/m 0,0 km/h (0 Bft) N 0,00 h 0,0 UV-I 7,7 C 8,6 C 0,0 km/h (0 Bft)
30.09.2011 04:00 8,5 C 19,7 C 16,1 C 8,3 C 8,0 C 0,0 C 92 % 80 % 0 % 1028,2 hPa 0,0 l/m 0,0 km/h (0 Bft) N 0,00 h 0,0 UV-I 7,2 C 8,0 C 0,0 km/h (0 Bft)
30.09.2011 05:00 7,9 C 19,7 C 16,1 C 7,7 C 7,4 C 0,0 C 92 % 80 % 0 % 1028,3 hPa 0,0 l/m 0,0 km/h (0 Bft) N 0,00 h 0,0 UV-I 6,6 C 7,4 C 0,0 km/h (0 Bft)
30.09.2011 06:00 7,7 C 19,7 C 16,1 C 7,6 C 7,2 C 0,0 C 92 % 80 % 0 % 1028,7 hPa 0,0 l/m 0,0 km/h (0 Bft) N 0,00 h 0,0 UV-I 6,5 C 7,2 C 0,0 km/h (0 Bft)
30.09.2011 07:00 7,5 C 19,7 C 14,7 C 8,0 C 7,9 C 0,5 C 93 % 82 % 14 % 1029,2 hPa 0,0 l/m 0,0 km/h (0 Bft) N 0,33 h 0,0 UV-I 6,4 C 7,9 C 0,0 km/h (0 Bft)
30.09.2011 08:00 8,4 C 19,7 C 9,5 C 9,2 C 9,2 C 0,8 C 93 % 90 % 21 % 1028,4 hPa 0,0 l/m 0,0 km/h (0 Bft) N 0,08 h 0,0 UV-I 7,3 C 9,2 C 0,0 km/h (0 Bft)
30.09.2011 09:00 10,0 C 19,7 C 11,2 C 11,4 C 11,4 C 1,4 C 94 % 92 % 37 % 1028,6 hPa 0,0 l/m 0,0 km/h (0 Bft) N 0,00 h 0,0 UV-I 9,1 C 11,4 C 0,0 km/h (0 Bft)
30.09.2011 10:00 13,2 C 19,7 C 13,7 C 15,4 C 15,4 C 2,2 C 94 % 90 % 59 % 1028,6 hPa 0,0 l/m 1,0 km/h (0 Bft) SW 0,00 h 0,0 UV-I 12,2 C 15,4 C 1,9 km/h (1 Bft)
30.09.2011 11:00 17,6 C 19,7 C 16,7 C 19,3 C 19,3 C 1,7 C 86 % 86 % 46 % 1028,3 hPa 0,0 l/m 1,2 km/h (1 Bft) O-NO 0,00 h 0,0 UV-I 15,2 C 19,3 C 2,0 km/h (1 Bft)
30.09.2011 12:00 22,5 C 19,7 C 19,1 C 25,1 C 25,1 C 2,7 C 58 % 73 % 62 % 1028,2 hPa 0,0 l/m 2,6 km/h (1 Bft) O-NO 0,42 h 1,6 UV-I 13,7 C 25,1 C 4,3 km/h (1 Bft)
30.09.2011 13:00 24,4 C 19,7 C 21,2 C 29,0 C 29,0 C 4,5 C 49 % 64 % 100 % 1027,7 hPa 0,0 l/m 3,8 km/h (1 Bft) O-NO 1,00 h 0,0 UV-I 13,1 C 29,0 C 5,4 km/h (1 Bft)
30.09.2011 14:00 25,4 C 19,7 C 23,3 C 30,3 C 30,3 C 4,9 C 45 % 54 % 100 % 1027,4 hPa 0,0 l/m 3,1 km/h (1 Bft) O-NO 1,00 h 0,0 UV-I 12,6 C 30,3 C 4,1 km/h (1 Bft)
30.09.2011 15:00 26,0 C 19,2 C 28,1 C 29,7 C 29,7 C 3,7 C 43 % 41 % 95 % 1026,7 hPa 0,0 l/m 4,6 km/h (1 Bft) O-NO 1,00 h 0,0 UV-I 12,3 C 29,7 C 6,7 km/h (2 Bft)
30.09.2011 16:00 25,9 C 18,8 C 28,1 C 29,7 C 29,7 C 3,7 C 44 % 40 % 98 % 1026,6 hPa 0,0 l/m 3,0 km/h (1 Bft) O-NO 1,00 h 0,0 UV-I 12,6 C 29,7 C 4,2 km/h (1 Bft)
30.09.2011 17:00 24,9 C 19,0 C 24,4 C 28,7 C 28,7 C 3,8 C 48 % 52 % 96 % 1026,5 hPa 0,0 l/m 1,4 km/h (1 Bft) O-NO 1,00 h 0,0 UV-I 13,2 C 28,7 C 1,5 km/h (1 Bft)
30.09.2011 18:00 22,1 C 19,2 C 21,2 C 24,3 C 24,2 C 2,2 C 60 % 65 % 49 % 1026,5 hPa 0,0 l/m 0,0 km/h (0 Bft) N 0,67 h 0,0 UV-I 14,0 C 24,2 C 0,0 km/h (0 Bft)
30.09.2011 19:00 18,0 C 19,3 C 17,8 C 17,5 C 16,5 C 0,0 C 72 % 76 % 0 % 1026,5 hPa 0,0 l/m 0,0 km/h (0 Bft) N 0,00 h 0,0 UV-I 12,9 C 16,5 C 0,0 km/h (0 Bft)
30.09.2011 20:00 15,2 C 19,3 C 15,8 C 14,7 C 13,8 C 0,0 C 82 % 82 % 0 % 1026,5 hPa 0,0 l/m 0,0 km/h (0 Bft) N 0,00 h 0,0 UV-I 12,0 C 13,8 C 0,0 km/h (0 Bft)
30.09.2011 21:00 13,4 C 19,3 C 14,4 C 13,1 C 12,4 C 0,0 C 86 % 85 % 0 % 1026,9 hPa 0,0 l/m 0,0 km/h (0 Bft) N 0,00 h 0,0 UV-I 11,1 C 12,4 C 0,0 km/h (0 Bft)
30.09.2011 22:00 12,4 C 19,3 C 13,3 C 12,1 C 11,6 C 0,0 C 88 % 87 % 0 % 1026,8 hPa 0,0 l/m 0,0 km/h (0 Bft) N 0,00 h 0,0 UV-I 10,4 C 11,6 C 0,0 km/h (0 Bft)
30.09.2011 23:00 11,4 C 19,3 C 12,6 C 11,1 C 10,6 C 0,0 C 89 % 87 % 0 % 1027,0 hPa 0,0 l/m 0,0 km/h (0 Bft) N 0,00 h 0,0 UV-I 9,6 C 10,6 C 0,0 km/h (0 Bft)
01.10.2011 00:00 10,7 C 19,3 C 11,8 C 10,5 C 10,1 C 0,0 C 90 % 88 % 0 % 1026,9 hPa 0,0 l/m 0,0 km/h (0 Bft) N 0,00 h 0,0 UV-I 9,1 C 10,1 C 0,1 km/h (0 Bft)
01.10.2011 01:00 9,9 C 19,3 C 11,3 C 9,7 C 9,2 C 0,0 C 90 % 88 % 0 % 1026,9 hPa 0,0 l/m 0,0 km/h (0 Bft) N 0,00 h 0,0 UV-I 8,3 C 9,2 C 0,0 km/h (0 Bft)
01.10.2011 02:00 9,5 C 19,3 C 10,9 C 9,4 C 9,1 C 0,0 C 91 % 89 % 0 % 1026,9 hPa 0,0 l/m 0,0 km/h (0 Bft) N 0,00 h 0,0 UV-I 8,1 C 9,1 C 0,0 km/h (0 Bft)
01.10.2011 03:00 9,2 C 19,3 C 10,5 C 9,1 C 8,8 C 0,0 C 91 % 89 % 0 % 1026,8 hPa 0,0 l/m 0,0 km/h (0 Bft) N 0,00 h 0,0 UV-I 7,9 C 8,8 C 0,0 km/h (0 Bft)
01.10.2011 04:00 8,8 C 19,3 C 10,1 C 8,7 C 8,4 C 0,0 C 92 % 89 % 0 % 1026,7 hPa 0,0 l/m 0,0 km/h (0 Bft) N 0,00 h 0,0 UV-I 7,5 C 8,4 C 0,1 km/h (0 Bft)
01.10.2011 05:00 8,7 C 19,3 C 9,9 C 8,6 C 8,3 C 0,0 C 92 % 89 % 0 % 1026,5 hPa 0,0 l/m 0,0 km/h (0 Bft) N 0,00 h 0,0 UV-I 7,5 C 8,3 C 0,0 km/h (0 Bft)
01.10.2011 06:00 8,2 C 19,3 C 9,5 C 8,0 C 7,7 C 0,0 C 92 % 89 % 0 % 1026,5 hPa 0,0 l/m 0,0 km/h (0 Bft) N 0,00 h 0,0 UV-I 7,0 C 7,7 C 0,0 km/h (0 Bft)
01.10.2011 07:00 8,0 C 19,3 C 9,2 C 8,3 C 8,2 C 0,4 C 92 % 90 % 10 % 1026,8 hPa 0,0 l/m 0,0 km/h (0 Bft) N 0,17 h 0,0 UV-I 6,8 C 8,2 C 0,0 km/h (0 Bft)
01.10.2011 08:00 8,5 C 19,3 C 9,6 C 9,2 C 9,2 C 0,7 C 93 % 90 % 17 % 1027,5 hPa 0,0 l/m 0,0 km/h (0 Bft) N 0,08 h 0,0 UV-I 7,5 C 9,2 C 0,0 km/h (0 Bft)
01.10.2011 09:00 9,9 C 19,3 C 11,0 C 11,1 C 11,1 C 1,2 C 93 % 91 % 31 % 1027,0 hPa 0,0 l/m 0,0 km/h (0 Bft) N 0,00 h 0,0 UV-I 8,9 C 11,1 C 0,0 km/h (0 Bft)
01.10.2011 10:00 13,1 C 19,2 C 13,6 C 15,6 C 15,6 C 2,5 C 94 % 91 % 66 % 1027,0 hPa 0,0 l/m 0,3 km/h (0 Bft) S 0,00 h 0,0 UV-I 12,1 C 15,6 C 0,9 km/h (0 Bft)
01.10.2011 11:00 19,5 C 18,0 C 17,3 C 20,5 C 20,5 C 1,0 C 72 % 81 % 26 % 1026,5 hPa 0,0 l/m 2,2 km/h (1 Bft) O-NO 0,00 h 0,0 UV-I 14,2 C 20,5 C 3,6 km/h (1 Bft)
01.10.2011 12:00 22,9 C 18,0 C 19,1 C 25,7 C 25,7 C 2,8 C 56 % 74 % 66 % 1026,4 hPa 0,0 l/m 1,8 km/h (1 Bft) O-NO 0,50 h 2,0 UV-I 13,7 C 25,7 C 3,1 km/h (1 Bft)
01.10.2011 13:00 24,8 C 18,2 C 22,0 C 30,3 C 30,3 C 5,5 C 49 % 59 % 100 % 1026,2 hPa 0,0 l/m 2,2 km/h (1 Bft) O-NO 0,95 h 0,0 UV-I 13,2 C 30,3 C 2,3 km/h (1 Bft)
01.10.2011 14:00 25,4 C 18,4 C 23,8 C 30,4 C 30,4 C 5,0 C 46 % 52 % 100 % 1026,5 hPa 0,0 l/m 3,0 km/h (1 Bft) O-NO 0,98 h 0,0 UV-I 12,9 C 30,4 C 4,4 km/h (1 Bft)
01.10.2011 15:00 25,8 C 18,5 C 28,2 C 31,2 C 31,2 C 5,4 C 48 % 45 % 100 % 1026,5 hPa 0,0 l/m 1,3 km/h (1 Bft) O-NO 1,00 h 0,0 UV-I 13,9 C 31,2 C 1,4 km/h (1 Bft)
01.10.2011 16:00 25,5 C 18,5 C 28,0 C 30,7 C 30,7 C 5,2 C 49 % 44 % 100 % 1026,1 hPa 0,0 l/m 0,7 km/h (0 Bft) O-NO 1,00 h 0,0 UV-I 14,0 C 30,7 C 1,0 km/h (0 Bft)
01.10.2011 17:00 24,3 C 18,5 C 24,2 C 28,4 C 28,4 C 4,1 C 51 % 51 % 100 % 1025,7 hPa 0,0 l/m 0,5 km/h (0 Bft) N 1,00 h 0,0 UV-I 13,5 C 28,4 C 0,5 km/h (0 Bft)
01.10.2011 18:00 21,8 C 18,5 C 21,3 C 23,7 C 23,7 C 1,9 C 62 % 64 % 45 % 1025,9 hPa 0,0 l/m 0,0 km/h (0 Bft) N 0,67 h 0,0 UV-I 14,2 C 23,7 C 0,0 km/h (0 Bft)
01.10.2011 19:00 18,3 C 18,5 C 18,1 C 17,7 C 16,7 C 0,0 C 73 % 76 % 0 % 1025,8 hPa 0,0 l/m 0,0 km/h (0 Bft) N 0,00 h 0,0 UV-I 13,3 C 16,7 C 0,0 km/h (0 Bft)
01.10.2011 20:00 15,4 C 18,5 C 17,0 C 15,0 C 14,2 C 0,0 C 82 % 79 % 0 % 1025,9 hPa 0,0 l/m 0,0 km/h (0 Bft) N 0,00 h 0,0 UV-I 12,4 C 14,2 C 0,0 km/h (0 Bft)
01.10.2011 21:00 13,9 C 18,5 C 16,5 C 13,6 C 13,0 C 0,0 C 86 % 80 % 0 % 1026,0 hPa 0,0 l/m 0,0 km/h (0 Bft) N 0,00 h 0,0 UV-I 11,6 C 13,0 C 0,0 km/h (0 Bft)
01.10.2011 22:00 12,8 C 18,5 C 14,3 C 12,6 C 12,1 C 0,0 C 89 % 86 % 0 % 1025,8 hPa 0,0 l/m 0,0 km/h (0 Bft) N 0,00 h 0,0 UV-I 11,0 C 12,1 C 0,0 km/h (0 Bft)
01.10.2011 23:00 11,9 C 19,8 C 14,3 C 11,7 C 11,2 C 0,0 C 90 % 86 % 0 % 1025,8 hPa 0,0 l/m 0,0 km/h (0 Bft) N 0,00 h 0,0 UV-I 10,2 C 11,2 C 0,0 km/h (0 Bft)
02.10.2011 00:00 10,9 C 19,9 C 14,3 C 10,6 C 10,2 C 0,0 C 90 % 86 % 0 % 1026,0 hPa 0,0 l/m 0,0 km/h (0 Bft) N 0,00 h 0,0 UV-I 9,2 C 10,2 C 0,0 km/h (0 Bft)
02.10.2011 01:00 10,1 C 19,7 C 14,3 C 9,9 C 9,5 C 0,0 C 91 % 86 % 0 % 1026,0 hPa 0,0 l/m 0,0 km/h (0 Bft) N 0,00 h 0,0 UV-I 8,7 C 9,5 C 0,0 km/h (0 Bft)
02.10.2011 02:00 9,4 C 19,6 C 14,3 C 9,2 C 8,8 C 0,0 C 91 % 86 % 0 % 1026,0 hPa 0,0 l/m 0,0 km/h (0 Bft) N 0,00 h 0,0 UV-I 8,0 C 8,8 C 0,0 km/h (0 Bft)
02.10.2011 03:00 8,8 C 19,4 C 14,3 C 8,6 C 8,2 C 0,0 C 91 % 86 % 0 % 1025,8 hPa 0,0 l/m 0,0 km/h (0 Bft) N 0,00 h 0,0 UV-I 7,4 C 8,2 C 0,0 km/h (0 Bft)
02.10.2011 04:00 8,3 C 19,2 C 14,3 C 8,2 C 7,8 C 0,0 C 91 % 86 % 0 % 1025,7 hPa 0,0 l/m 0,0 km/h (0 Bft) N 0,00 h 0,0 UV-I 7,0 C 7,8 C 0,0 km/h (0 Bft)
02.10.2011 05:00 7,9 C 19,1 C 14,3 C 7,8 C 7,5 C 0,0 C 92 % 86 % 0 % 1025,7 hPa 0,0 l/m 0,0 km/h (0 Bft) N 0,00 h 0,0 UV-I 6,7 C 7,5 C 0,0 km/h (0 Bft)
02.10.2011 06:00 7,3 C 19,0 C 14,3 C 7,2 C 6,8 C 0,0 C 92 % 86 % 0 % 1025,9 hPa 0,0 l/m 0,0 km/h (0 Bft) N 0,00 h 0,0 UV-I 6,1 C 6,8 C 0,0 km/h (0 Bft)
02.10.2011 07:00 6,9 C 18,9 C 14,3 C 7,2 C 7,1 C 0,4 C 92 % 86 % 10 % 1026,2 hPa 0,0 l/m 0,0 km/h (0 Bft) N 0,17 h 0,0 UV-I 5,7 C 7,1 C 0,0 km/h (0 Bft)
02.10.2011 08:00 7,5 C 18,7 C 14,3 C 8,5 C 8,5 C 0,9 C 93 % 86 % 25 % 1026,7 hPa 0,0 l/m 0,0 km/h (0 Bft) N 0,08 h 0,0 UV-I 6,5 C 8,5 C 0,0 km/h (0 Bft)
02.10.2011 09:00 9,2 C 18,7 C 12,8 C 10,6 C 10,6 C 1,4 C 94 % 88 % 37 % 1026,2 hPa 0,0 l/m 0,0 km/h (0 Bft) N 0,00 h 0,0 UV-I 8,2 C 10,6 C 0,2 km/h (0 Bft)
02.10.2011 10:00 11,9 C 18,5 C 12,8 C 14,4 C 14,4 C 2,5 C 94 % 91 % 67 % 1026,2 hPa 0,0 l/m 0,3 km/h (0 Bft) N 0,00 h 0,0 UV-I 10,9 C 14,4 C 0,4 km/h (0 Bft)
02.10.2011 11:00 15,9 C 18,0 C 15,4 C 18,5 C 18,5 C 2,5 C 91 % 87 % 67 % 1025,9 hPa 0,0 l/m 1,2 km/h (1 Bft) W-SW 0,00 h 0,0 UV-I 14,5 C 18,5 C 2,2 km/h (1 Bft)
02.10.2011 12:00 20,9 C 18,0 C 17,9 C 24,9 C 24,9 C 4,1 C 67 % 77 % 82 % 1025,4 hPa 0,0 l/m 1,1 km/h (0 Bft) W-SW 0,50 h 1,2 UV-I 14,4 C 24,9 C 1,7 km/h (1 Bft)
02.10.2011 13:00 24,1 C 18,0 C 19,9 C 30,4 C 30,4 C 6,3 C 51 % 65 % 100 % 1025,0 hPa 0,0 l/m 1,2 km/h (1 Bft) W-SW 1,00 h 0,0 UV-I 13,3 C 30,4 C 2,4 km/h (1 Bft)
02.10.2011 14:00 24,9 C 18,0 C 22,2 C 31,3 C 31,3 C 6,4 C 46 % 58 % 100 % 1024,5 hPa 0,0 l/m 1,8 km/h (1 Bft) W 1,00 h 0,0 UV-I 12,6 C 31,3 C 3,2 km/h (1 Bft)
02.10.2011 15:00 27,1 C 18,0 C 29,1 C 31,7 C 31,7 C 4,6 C 41 % 41 % 97 % 1023,7 hPa 0,0 l/m 1,1 km/h (0 Bft) O-NO 1,00 h 0,0 UV-I 12,7 C 31,7 C 1,6 km/h (1 Bft)
02.10.2011 16:00 27,3 C 18,0 C 28,3 C 31,6 C 31,6 C 4,3 C 39 % 40 % 100 % 1023,3 hPa 0,0 l/m 0,4 km/h (0 Bft) N 1,00 h 0,0 UV-I 12,2 C 31,6 C 0,2 km/h (0 Bft)
02.10.2011 17:00 24,7 C 18,0 C 23,8 C 30,0 C 30,0 C 5,2 C 45 % 50 % 100 % 1023,1 hPa 0,0 l/m 0,0 km/h (0 Bft) N 1,00 h 0,0 UV-I 12,0 C 30,0 C 0,0 km/h (0 Bft)
02.10.2011 18:00 21,6 C 18,0 C 20,5 C 23,3 C 23,2 C 1,8 C 62 % 68 % 46 % 1022,8 hPa 0,0 l/m 0,0 km/h (0 Bft) N 0,67 h 0,0 UV-I 13,9 C 23,2 C 0,0 km/h (0 Bft)
02.10.2011 19:00 17,3 C 18,0 C 17,3 C 16,7 C 15,6 C 0,0 C 76 % 78 % 0 % 1022,9 hPa 0,0 l/m 0,0 km/h (0 Bft) N 0,00 h 0,0 UV-I 13,0 C 15,6 C 0,0 km/h (0 Bft)
02.10.2011 20:00 14,7 C 18,0 C 15,4 C 14,2 C 13,2 C 0,0 C 83 % 83 % 0 % 1022,7 hPa 0,0 l/m 0,0 km/h (0 Bft) N 0,00 h 0,0 UV-I 11,8 C 13,2 C 0,0 km/h (0 Bft)
02.10.2011 21:00 13,0 C 18,0 C 14,1 C 12,7 C 12,1 C 0,0 C 87 % 86 % 0 % 1023,1 hPa 0,0 l/m 0,0 km/h (0 Bft) N 0,00 h 0,0 UV-I 10,9 C 12,1 C 0,0 km/h (0 Bft)
02.10.2011 22:00 11,9 C 18,0 C 13,1 C 11,6 C 11,1 C 0,0 C 88 % 87 % 0 % 1022,8 hPa 0,0 l/m 0,0 km/h (0 Bft) N 0,00 h 0,0 UV-I 9,9 C 11,1 C 0,0 km/h (0 Bft)
02.10.2011 23:00 11,1 C 18,0 C 12,3 C 10,9 C 10,5 C 0,0 C 89 % 88 % 0 % 1022,6 hPa 0,0 l/m 0,0 km/h (0 Bft) N 0,00 h 0,0 UV-I 9,4 C 10,5 C 0,0 km/h (0 Bft)
Min-Datum _ 02.10.11 26.09.11 01.10.11 02.10.11 02.10.11 26.09.11 02.10.11 02.10.11 26.09.11 26.09.11 - 26.09.11 - - 26.09.11 02.10.11 02.10.11 26.09.11
_ Min-Zeit 07:15 10:35 07:45 07:15 07:20 00:00 15:55 15:50 00:00 00:00 - 00:00 - - 00:00 07:15 07:20 00:00
Minimum _ 6,8 C 17,6 C 9,0 C 6,7 C 6,4 C 0,0 C 38 % 37 % 0 % 1021,3 hPa - 0,0 km/h (0 Bft) - - 0,0 UV-I 5,6 C 6,4 C 0,0 km/h (0 Bft)
Max-Datum _ 02.10.11 01.10.11 02.10.11 02.10.11 02.10.11 29.09.11 26.09.11 28.09.11 26.09.11 28.09.11 26.09.11 30.09.11 - 29.09.11 01.10.11 26.09.11 02.10.11 28.09.11
_ Max-Zeit 15:50 23:10 15:45 15:40 15:40 14:55 09:55 10:25 10:11 08:40 00:00 15:20 - 17:14 12:44 12:20 15:40 15:30
Maximum _ 28,3 C 19,9 C 30,4 C 32,1 C 32,1 C 7,1 C 95 % 95 % 100 % 1030,8 hPa 0,0 l/m 5,3 km/h
O-NO (1 Bft)
- 0,23 h 4,1 UV-I 17,1 C 32,1 C 10,8 km/h
O-NO (2 Bft)
Durchschnitt _ 15,0 C 19,1 C 16,7 C 16,3 C 16,1 C 1,5 C 82 % 79 % 32 % 1026,8 hPa #0,0 l/m 0,5 km/h (0 Bft) O-NO #41:10 h 0,9 UV-I 11,4 C 16,1 C 0,8 km/h (0 Bft)
2013 www.wetterstation-wechselburg.de